createdAt,value
2022-12-04T00:00:15.561Z,26.70
2022-12-04T00:02:49.584Z,27.20
2022-12-04T00:05:23.176Z,28.30
2022-12-04T00:07:57.053Z,25.17
2022-12-04T00:10:33.182Z,27.37
2022-12-04T00:13:07.223Z,26.07
2022-12-04T00:15:43.166Z,25.97
2022-12-04T00:18:18.614Z,28.07
2022-12-04T00:20:57.585Z,35.37
2022-12-04T00:23:30.149Z,29.50
2022-12-04T00:26:06.721Z,26.50
2022-12-04T00:28:40.825Z,28.30
2022-12-04T00:31:21.883Z,27.23
2022-12-04T00:34:02.392Z,27.77
2022-12-04T00:36:38.370Z,26.67
2022-12-04T00:39:13.768Z,27.47
2022-12-04T00:41:48.406Z,27.80
2022-12-04T00:44:23.997Z,26.03
2022-12-04T00:47:03.477Z,26.57
2022-12-04T00:49:36.803Z,29.30
2022-12-04T00:52:13.718Z,26.67
2022-12-04T00:54:49.528Z,31.17
2022-12-04T00:57:26.406Z,27.87
2022-12-04T01:00:03.704Z,32.57
2022-12-04T01:02:34.056Z,30.03
2022-12-04T01:05:08.734Z,29.67
2022-12-04T01:07:44.958Z,29.37
2022-12-04T01:10:22.375Z,31.73
2022-12-04T01:12:58.647Z,31.50
2022-12-04T01:15:34.328Z,30.60
2022-12-04T01:18:07.696Z,30.00
2022-12-04T01:20:39.213Z,28.47
2022-12-04T01:23:13.976Z,29.77
2022-12-04T01:25:56.267Z,29.43
2022-12-04T01:28:28.086Z,28.30
2022-12-04T01:31:05.611Z,29.33
2022-12-04T01:33:37.550Z,27.60
2022-12-04T01:36:11.906Z,28.60
2022-12-04T01:38:47.560Z,27.03
2022-12-04T01:41:24.910Z,28.80
2022-12-04T01:44:15.724Z,28.00
2022-12-04T01:46:58.088Z,27.63
2022-12-04T01:49:35.055Z,26.60
2022-12-04T01:52:14.811Z,28.13
2022-12-04T01:54:52.494Z,28.57
2022-12-04T01:57:32.408Z,27.33
2022-12-04T02:00:10.920Z,27.13
2022-12-04T02:02:48.300Z,28.93
2022-12-04T02:05:25.007Z,25.77
2022-12-04T02:08:00.531Z,28.23
2022-12-04T02:10:49.627Z,27.97
2022-12-04T02:13:32.186Z,27.60
2022-12-04T02:16:10.585Z,27.13
2022-12-04T02:19:00.028Z,26.60
2022-12-04T02:21:37.449Z,27.20
2022-12-04T02:24:31.557Z,27.77
2022-12-04T02:27:13.970Z,26.57
2022-12-04T02:29:56.342Z,27.30
2022-12-04T02:32:39.661Z,28.00
2022-12-04T02:35:22.839Z,30.17
2022-12-04T02:37:58.606Z,26.93
2022-12-04T02:40:40.808Z,28.00
2022-12-04T02:43:16.892Z,27.33
2022-12-04T02:46:00.492Z,30.13
2022-12-04T02:48:33.026Z,28.57
2022-12-04T02:51:11.138Z,27.27
2022-12-04T02:53:53.919Z,27.67
2022-12-04T02:56:32.416Z,30.00
2022-12-04T02:59:12.735Z,28.00
2022-12-04T03:01:54.462Z,29.47
2022-12-04T03:04:31.958Z,28.67
2022-12-04T03:07:13.282Z,29.77
2022-12-04T03:09:48.697Z,28.13
2022-12-04T03:12:27.344Z,27.63
2022-12-04T03:15:05.781Z,27.43
2022-12-04T03:17:42.544Z,28.90
2022-12-04T03:20:17.282Z,27.60
2022-12-04T03:22:57.758Z,26.63
2022-12-04T03:25:40.150Z,28.60
2022-12-04T03:28:22.738Z,27.20
2022-12-04T03:31:02.018Z,28.97
2022-12-04T03:33:41.697Z,27.67
2022-12-04T03:36:19.763Z,26.90
2022-12-04T03:38:57.662Z,29.00
2022-12-04T03:41:49.577Z,27.40
2022-12-04T03:44:24.899Z,27.40
2022-12-04T03:47:07.451Z,27.67
2022-12-04T03:49:47.445Z,27.63
2022-12-04T03:52:28.669Z,27.10
2022-12-04T03:55:09.722Z,27.43
2022-12-04T03:57:46.451Z,27.77
2022-12-04T04:00:22.398Z,26.33
2022-12-04T04:02:56.996Z,25.43
2022-12-04T04:05:35.234Z,26.73
2022-12-04T04:08:31.100Z,26.93
2022-12-04T04:11:11.156Z,27.37
2022-12-04T04:14:06.776Z,27.60
2022-12-04T04:17:04.345Z,28.90
2022-12-04T04:19:59.578Z,28.30
2022-12-04T04:22:55.954Z,26.97
2022-12-04T04:25:29.511Z,27.93
2022-12-04T04:28:04.272Z,28.13
2022-12-04T04:30:37.078Z,26.13
2022-12-04T04:33:15.098Z,27.43
2022-12-04T04:35:53.811Z,28.60
2022-12-04T04:38:32.378Z,27.87
2022-12-04T04:41:10.982Z,26.53
2022-12-04T04:43:52.984Z,28.13
2022-12-04T04:46:32.259Z,27.00
2022-12-04T04:49:07.222Z,27.90
2022-12-04T04:51:38.836Z,27.00
2022-12-04T04:54:14.492Z,27.13
2022-12-04T04:56:46.144Z,26.60
2022-12-04T04:59:18.396Z,27.73
2022-12-04T05:01:53.761Z,28.50
2022-12-04T05:04:26.327Z,29.63
2022-12-04T05:06:57.443Z,29.63
2022-12-04T05:09:30.753Z,28.20
2022-12-04T05:12:06.453Z,28.93
2022-12-04T05:14:38.374Z,26.63
2022-12-04T05:17:12.597Z,28.03
2022-12-04T05:19:57.894Z,30.33
2022-12-04T05:22:32.790Z,29.00
2022-12-04T05:25:04.688Z,27.53
2022-12-04T05:27:38.068Z,31.67
2022-12-04T05:30:12.497Z,26.67
2022-12-04T05:32:44.270Z,29.53
2022-12-04T05:35:15.697Z,28.80
2022-12-04T05:37:47.601Z,28.97
2022-12-04T05:40:20.757Z,27.73
2022-12-04T05:42:54.731Z,27.37
2022-12-04T05:45:28.364Z,30.27
2022-12-04T05:47:59.153Z,27.87
2022-12-04T05:50:31.760Z,30.10
2022-12-04T05:53:05.398Z,31.80
2022-12-04T05:55:36.235Z,30.27
2022-12-04T05:58:13.543Z,29.80
2022-12-04T06:00:48.857Z,34.47
2022-12-04T06:03:23.318Z,30.30
2022-12-04T06:05:58.254Z,31.07
2022-12-04T06:08:31.867Z,31.47
2022-12-04T06:11:11.706Z,30.97
2022-12-04T06:13:47.689Z,30.70
2022-12-04T06:16:21.059Z,30.23
2022-12-04T06:18:54.205Z,31.10
2022-12-04T06:21:28.872Z,29.80
2022-12-04T06:23:58.640Z,30.57
2022-12-04T06:26:33.543Z,29.40
2022-12-04T06:29:09.369Z,28.43
2022-12-04T06:31:44.233Z,31.40
2022-12-04T06:34:17.221Z,31.33
2022-12-04T06:36:50.641Z,32.13
2022-12-04T06:39:27.238Z,29.77
2022-12-04T06:42:10.396Z,30.53
2022-12-04T06:44:41.138Z,31.40
2022-12-04T06:47:14.165Z,30.83
2022-12-04T06:49:46.021Z,30.60
2022-12-04T06:52:17.432Z,32.30
2022-12-04T06:54:50.056Z,33.03
2022-12-04T06:57:22.586Z,33.47
2022-12-04T06:59:58.962Z,32.53
2022-12-04T07:02:34.458Z,31.53
2022-12-04T07:05:13.360Z,32.77
2022-12-04T07:07:50.241Z,32.23
2022-12-04T07:10:25.320Z,31.67
2022-12-04T07:12:57.055Z,31.93
2022-12-04T07:15:28.912Z,31.40
2022-12-04T07:17:59.247Z,31.43
2022-12-04T07:20:29.482Z,31.90
2022-12-04T07:23:07.015Z,34.07
2022-12-04T07:25:41.568Z,32.47
2022-12-04T07:28:15.364Z,32.93
2022-12-04T07:30:47.160Z,35.33
2022-12-04T07:33:20.914Z,33.83
2022-12-04T07:35:58.167Z,35.03
2022-12-04T07:38:36.821Z,33.53
2022-12-04T07:41:15.721Z,31.93
2022-12-04T07:43:52.406Z,34.43
2022-12-04T07:46:27.053Z,33.03
2022-12-04T07:48:59.879Z,35.40
2022-12-04T07:51:36.753Z,34.00
2022-12-04T07:54:09.740Z,33.80
2022-12-04T07:56:46.979Z,34.00
2022-12-04T07:59:23.006Z,33.13
2022-12-04T08:01:52.975Z,34.03
2022-12-04T08:04:30.269Z,34.10
2022-12-04T08:07:06.528Z,34.13
2022-12-04T08:09:43.958Z,35.00
2022-12-04T08:12:17.158Z,38.07
2022-12-04T08:15:07.774Z,32.87
2022-12-04T08:17:40.000Z,33.10
2022-12-04T08:20:14.816Z,34.10
2022-12-04T08:22:46.938Z,36.13
2022-12-04T08:25:21.451Z,35.40
2022-12-04T08:27:54.452Z,33.07
2022-12-04T08:30:30.422Z,34.13
2022-12-04T08:33:05.568Z,35.73
2022-12-04T08:35:39.326Z,36.60
2022-12-04T08:38:14.727Z,34.30
2022-12-04T08:40:54.119Z,36.60
2022-12-04T08:43:27.108Z,36.00
2022-12-04T08:46:01.019Z,35.33
2022-12-04T08:48:36.245Z,39.20
2022-12-04T08:51:09.092Z,36.10
2022-12-04T08:53:41.318Z,36.57
2022-12-04T08:56:14.329Z,36.80
2022-12-04T08:58:46.910Z,35.47
2022-12-04T09:01:21.201Z,36.23
2022-12-04T09:03:53.484Z,37.43
2022-12-04T09:06:33.128Z,35.57
2022-12-04T09:09:10.063Z,45.43
2022-12-04T09:11:46.736Z,38.30
2022-12-04T09:14:25.854Z,37.73
2022-12-04T09:16:57.588Z,37.30
2022-12-04T09:19:35.447Z,42.77
2022-12-04T09:22:10.888Z,41.53
2022-12-04T09:24:45.224Z,36.90
2022-12-04T09:27:19.482Z,40.67
2022-12-04T09:29:56.039Z,36.03
2022-12-04T09:32:30.862Z,36.07
2022-12-04T09:35:08.942Z,36.83
2022-12-04T09:37:39.935Z,42.27
2022-12-04T09:40:29.505Z,35.93
2022-12-04T09:43:27.243Z,35.57
2022-12-04T09:46:11.268Z,39.47
2022-12-04T09:48:51.539Z,43.47
2022-12-04T09:51:28.309Z,42.30
2022-12-04T09:54:04.425Z,39.67
2022-12-04T09:56:37.828Z,40.97
2022-12-04T09:59:19.474Z,37.43
2022-12-04T10:01:59.353Z,42.83
2022-12-04T10:04:35.271Z,50.80
2022-12-04T10:07:17.024Z,47.43
2022-12-04T10:09:55.046Z,48.47
2022-12-04T10:12:39.327Z,40.30
2022-12-04T10:15:23.837Z,39.37
2022-12-04T10:18:17.512Z,38.17
2022-12-04T10:21:17.123Z,41.13
2022-12-04T10:24:06.040Z,50.43
2022-12-04T10:26:42.878Z,40.47
2022-12-04T10:29:23.171Z,40.40
2022-12-04T10:32:05.076Z,38.77
2022-12-04T10:34:45.640Z,39.87
2022-12-04T10:37:23.541Z,40.83
2022-12-04T10:39:59.354Z,36.50
2022-12-04T10:42:40.885Z,39.57
2022-12-04T10:45:14.953Z,41.00
2022-12-04T10:47:51.061Z,39.43
2022-12-04T10:50:29.113Z,38.47
2022-12-04T10:53:07.162Z,39.70
2022-12-04T10:55:43.421Z,38.23
2022-12-04T10:58:23.531Z,38.67
2022-12-04T11:01:05.000Z,38.93
2022-12-04T11:03:36.482Z,36.87
2022-12-04T11:06:11.964Z,39.27
2022-12-04T11:08:50.592Z,38.03
2022-12-04T11:11:27.866Z,38.03
2022-12-04T11:14:07.900Z,39.93
2022-12-04T11:16:42.128Z,36.17
2022-12-04T11:19:22.276Z,45.27
2022-12-04T11:21:54.241Z,42.33
2022-12-04T11:24:33.525Z,46.73
2022-12-04T11:27:05.911Z,39.53
2022-12-04T11:29:44.036Z,38.57
2022-12-04T11:32:23.610Z,49.37
2022-12-04T11:35:05.094Z,39.40
2022-12-04T11:37:45.208Z,39.37
2022-12-04T11:40:31.953Z,42.87
2022-12-04T11:43:05.959Z,41.37
2022-12-04T11:45:54.466Z,40.77
2022-12-04T11:48:24.012Z,39.50
2022-12-04T11:51:03.097Z,44.27
2022-12-04T11:53:45.920Z,42.00
2022-12-04T11:56:31.587Z,44.37
2022-12-04T11:59:24.781Z,42.07
2022-12-04T12:02:12.467Z,47.37
2022-12-04T12:05:09.593Z,41.07
2022-12-04T12:08:00.608Z,46.70
2022-12-04T12:10:50.224Z,44.53
2022-12-04T12:13:34.465Z,43.27
2022-12-04T12:16:15.775Z,46.63
2022-12-04T12:19:01.969Z,40.07
2022-12-04T12:21:40.618Z,41.73
2022-12-04T12:24:25.462Z,54.87
2022-12-04T12:27:18.041Z,44.27
2022-12-04T12:30:01.617Z,52.63
2022-12-04T12:32:52.601Z,43.40
2022-12-04T12:35:35.362Z,42.40
2022-12-04T12:38:19.287Z,39.43
2022-12-04T12:41:00.559Z,40.23
2022-12-04T12:43:38.100Z,40.57
2022-12-04T12:46:17.309Z,51.73
2022-12-04T12:48:59.336Z,40.57
2022-12-04T12:51:38.468Z,41.40
2022-12-04T12:54:29.474Z,42.83
2022-12-04T12:57:08.376Z,50.87
2022-12-04T12:59:47.433Z,46.00
2022-12-04T13:02:31.303Z,42.40
2022-12-04T13:05:10.213Z,49.20
2022-12-04T13:07:50.858Z,44.47
2022-12-04T13:10:33.023Z,49.50
2022-12-04T13:13:15.256Z,42.83
2022-12-04T13:15:53.766Z,41.13
2022-12-04T13:18:31.822Z,45.00
2022-12-04T13:21:15.069Z,45.93
2022-12-04T13:24:04.302Z,45.13
2022-12-04T13:26:57.472Z,44.10
2022-12-04T13:29:50.697Z,42.70
2022-12-04T13:32:48.560Z,43.40
2022-12-04T13:36:02.740Z,43.27
2022-12-04T13:38:40.289Z,40.63
2022-12-04T13:41:22.433Z,41.97
2022-12-04T13:43:54.949Z,45.13
2022-12-04T13:46:34.348Z,41.63
2022-12-04T13:49:25.145Z,44.53
2022-12-04T13:52:03.103Z,42.77
2022-12-04T13:54:41.241Z,46.27
2022-12-04T13:57:28.336Z,46.77
2022-12-04T14:00:28.710Z,45.00
2022-12-04T14:03:05.485Z,48.63
2022-12-04T14:05:43.753Z,44.83
2022-12-04T14:08:35.122Z,48.60
2022-12-04T14:11:14.835Z,44.80
2022-12-04T14:14:04.949Z,42.67
2022-12-04T14:16:50.769Z,42.60
2022-12-04T14:19:34.917Z,42.97
2022-12-04T14:22:05.521Z,43.90
2022-12-04T14:24:42.439Z,43.97
2022-12-04T14:27:43.328Z,45.43
2022-12-04T14:30:20.621Z,42.83
2022-12-04T14:33:09.529Z,45.57
2022-12-04T14:35:49.052Z,46.67
2022-12-04T14:38:26.951Z,55.53
2022-12-04T14:41:05.893Z,54.33
2022-12-04T14:43:48.500Z,43.33
2022-12-04T14:46:32.619Z,47.47
2022-12-04T14:49:24.716Z,42.27
2022-12-04T14:52:17.993Z,52.37
2022-12-04T14:54:57.830Z,50.83
2022-12-04T14:57:44.618Z,48.10
2022-12-04T15:00:22.444Z,46.13
2022-12-04T15:03:14.431Z,54.97
2022-12-04T15:05:46.576Z,50.47
2022-12-04T15:08:17.330Z,44.63
2022-12-04T15:11:09.522Z,44.87
2022-12-04T15:13:46.272Z,52.63
2022-12-04T15:16:20.743Z,50.97
2022-12-04T15:18:57.105Z,42.63
2022-12-04T15:21:40.244Z,43.83
2022-12-04T15:24:19.502Z,48.40
2022-12-04T15:26:57.329Z,42.97
2022-12-04T15:29:32.553Z,44.33
2022-12-04T15:32:13.515Z,41.37
2022-12-04T15:34:48.604Z,60.63
2022-12-04T15:37:26.639Z,45.83
2022-12-04T15:39:59.346Z,59.73
2022-12-04T15:42:31.565Z,53.03
2022-12-04T15:45:27.845Z,45.90
2022-12-04T15:48:01.484Z,65.23
2022-12-04T15:50:43.462Z,50.50
2022-12-04T15:53:29.120Z,45.30
2022-12-04T15:56:05.192Z,44.30
2022-12-04T15:58:41.118Z,47.87
2022-12-04T16:01:24.871Z,43.73
2022-12-04T16:04:02.112Z,45.87
2022-12-04T16:06:35.040Z,47.07
2022-12-04T16:09:22.151Z,53.67
2022-12-04T16:11:59.741Z,45.87
2022-12-04T16:14:31.200Z,62.07
2022-12-04T16:17:12.546Z,50.30
2022-12-04T16:19:49.339Z,50.23
2022-12-04T16:22:23.732Z,58.47
2022-12-04T16:24:58.651Z,53.50
2022-12-04T16:27:35.098Z,48.73
2022-12-04T16:30:14.407Z,45.33
2022-12-04T16:32:48.935Z,50.20
2022-12-04T16:35:26.241Z,53.03
2022-12-04T16:38:15.859Z,45.13
2022-12-04T16:40:50.609Z,66.93
2022-12-04T16:43:24.124Z,44.07
2022-12-04T16:46:02.951Z,46.93
2022-12-04T16:48:46.321Z,56.83
2022-12-04T16:51:27.863Z,49.30
2022-12-04T16:54:16.246Z,48.80
2022-12-04T16:56:49.074Z,48.87
2022-12-04T16:59:22.165Z,49.83
2022-12-04T17:02:03.231Z,52.17
2022-12-04T17:04:40.603Z,56.23
2022-12-04T17:07:15.016Z,46.47
2022-12-04T17:09:52.708Z,48.13
2022-12-04T17:12:28.886Z,56.90
2022-12-04T17:15:02.156Z,56.93
2022-12-04T17:17:38.998Z,47.63
2022-12-04T17:20:15.272Z,45.77
2022-12-04T17:22:51.640Z,56.07
2022-12-04T17:25:25.925Z,47.73
2022-12-04T17:27:58.259Z,54.67
2022-12-04T17:30:31.487Z,49.00
2022-12-04T17:33:04.685Z,63.97
2022-12-04T17:35:34.458Z,54.47
2022-12-04T17:38:06.109Z,44.67
2022-12-04T17:40:35.416Z,44.27
2022-12-04T17:43:03.950Z,48.87
2022-12-04T17:45:32.626Z,57.13
2022-12-04T17:48:01.378Z,59.63
2022-12-04T17:50:29.697Z,52.57
2022-12-04T17:52:59.779Z,49.13
2022-12-04T17:55:29.051Z,50.13
2022-12-04T17:57:57.493Z,46.53
2022-12-04T18:00:26.940Z,44.77
2022-12-04T18:02:55.327Z,54.90
2022-12-04T18:05:24.590Z,46.10
2022-12-04T18:07:53.092Z,55.40
2022-12-04T18:10:24.354Z,46.10
2022-12-04T18:12:52.830Z,45.30
2022-12-04T18:15:21.351Z,50.97
2022-12-04T18:17:50.186Z,57.30
2022-12-04T18:20:18.903Z,45.77
2022-12-04T18:22:48.180Z,62.73
2022-12-04T18:25:16.547Z,45.83
2022-12-04T18:27:47.107Z,51.10
2022-12-04T18:30:15.918Z,48.03
2022-12-04T18:32:45.540Z,45.50
2022-12-04T18:35:13.944Z,43.93
2022-12-04T18:37:42.393Z,44.07
2022-12-04T18:40:11.714Z,45.73
2022-12-04T18:42:40.424Z,47.97
2022-12-04T18:45:12.324Z,57.63
2022-12-04T18:47:41.410Z,43.33
2022-12-04T18:50:10.423Z,59.03
2022-12-04T18:52:39.334Z,50.60
2022-12-04T18:55:08.905Z,49.20
2022-12-04T18:57:39.167Z,54.17
2022-12-04T19:00:09.073Z,47.37
2022-12-04T19:02:40.355Z,54.67
2022-12-04T19:05:09.962Z,41.93
2022-12-04T19:07:40.214Z,48.60
2022-12-04T19:10:11.444Z,45.23
2022-12-04T19:12:41.806Z,41.23
2022-12-04T19:15:11.229Z,43.60
2022-12-04T19:17:41.567Z,55.87
2022-12-04T19:20:11.410Z,43.13
2022-12-04T19:22:41.352Z,51.10
2022-12-04T19:25:10.325Z,42.17
2022-12-04T19:27:39.447Z,43.63
2022-12-04T19:30:08.929Z,50.30
2022-12-04T19:32:37.527Z,43.70
2022-12-04T19:35:08.481Z,48.83
2022-12-04T19:37:41.703Z,60.90
2022-12-04T19:40:11.292Z,47.57
2022-12-04T19:42:40.449Z,40.90
2022-12-04T19:45:10.291Z,48.57
2022-12-04T19:47:39.642Z,49.77
2022-12-04T19:50:10.737Z,50.00
2022-12-04T19:52:40.413Z,51.57
2022-12-04T19:55:10.097Z,47.77
2022-12-04T19:57:39.280Z,46.77
2022-12-04T20:00:08.935Z,41.83
2022-12-04T20:02:37.364Z,44.37
2022-12-04T20:05:06.881Z,48.77
2022-12-04T20:07:36.968Z,45.10
2022-12-04T20:10:06.590Z,45.93
2022-12-04T20:12:35.054Z,41.00
2022-12-04T20:15:03.552Z,42.60
2022-12-04T20:17:34.089Z,54.83
2022-12-04T20:20:02.485Z,45.87
2022-12-04T20:22:32.386Z,48.80
2022-12-04T20:25:03.137Z,41.00
2022-12-04T20:27:31.609Z,50.53
2022-12-04T20:30:00.167Z,45.50
2022-12-04T20:32:28.392Z,45.60
2022-12-04T20:34:56.987Z,42.17
2022-12-04T20:37:25.331Z,47.50
2022-12-04T20:39:55.400Z,58.43
2022-12-04T20:42:30.181Z,54.27
2022-12-04T20:45:01.646Z,43.63
2022-12-04T20:47:30.148Z,41.17
2022-12-04T20:49:58.953Z,43.47
2022-12-04T20:52:27.645Z,41.53
2022-12-04T20:54:56.546Z,46.83
2022-12-04T20:57:26.664Z,42.67
2022-12-04T20:59:55.914Z,49.47
2022-12-04T21:02:24.545Z,43.57
2022-12-04T21:04:53.325Z,49.47
2022-12-04T21:07:22.219Z,43.80
2022-12-04T21:09:50.949Z,46.03
2022-12-04T21:12:42.871Z,49.43
2022-12-04T21:15:31.575Z,43.70
2022-12-04T21:18:01.777Z,44.63
2022-12-04T21:20:30.200Z,52.27
2022-12-04T21:22:58.712Z,42.77
2022-12-04T21:25:27.745Z,59.43
2022-12-04T21:27:56.266Z,43.27
2022-12-04T21:30:26.347Z,43.00
2022-12-04T21:32:54.860Z,54.63
2022-12-04T21:35:23.547Z,50.87
2022-12-04T21:37:52.055Z,41.07
2022-12-04T21:40:20.379Z,41.37
2022-12-04T21:42:48.806Z,43.83
2022-12-04T21:45:17.083Z,40.00
2022-12-04T21:47:47.075Z,39.60
2022-12-04T21:50:15.505Z,43.93
2022-12-04T21:52:43.845Z,44.50
2022-12-04T21:55:12.311Z,47.20
2022-12-04T21:57:40.911Z,47.70
2022-12-04T22:00:10.672Z,46.87
2022-12-04T22:02:40.030Z,42.27
2022-12-04T22:05:10.574Z,46.23
2022-12-04T22:07:41.075Z,51.07
2022-12-04T22:10:11.192Z,46.30
2022-12-04T22:12:49.691Z,49.97
2022-12-04T22:15:19.028Z,47.77
2022-12-04T22:17:47.524Z,42.60
2022-12-04T22:20:17.660Z,42.67
2022-12-04T22:22:46.274Z,45.83
2022-12-04T22:25:15.506Z,41.07
2022-12-04T22:27:43.811Z,43.63
2022-12-04T22:30:13.315Z,43.40
2022-12-04T22:32:41.704Z,40.23
2022-12-04T22:35:10.637Z,39.67
2022-12-04T22:37:44.380Z,42.17
2022-12-04T22:40:14.225Z,43.83
2022-12-04T22:42:42.937Z,39.10
2022-12-04T22:45:12.277Z,38.80
2022-12-04T22:47:42.552Z,41.17
2022-12-04T22:50:12.960Z,41.60
2022-12-04T22:52:42.779Z,45.43
2022-12-04T22:55:11.169Z,52.37
2022-12-04T22:57:40.927Z,56.03
2022-12-04T23:00:10.851Z,40.80
2022-12-04T23:02:39.497Z,44.70
2022-12-04T23:05:08.455Z,42.93
2022-12-04T23:07:39.467Z,53.53
2022-12-04T23:10:10.495Z,40.90
2022-12-04T23:12:39.313Z,44.67
2022-12-04T23:15:09.124Z,41.80
2022-12-04T23:17:38.356Z,47.40
2022-12-04T23:20:08.531Z,42.03
2022-12-04T23:22:37.780Z,40.03
2022-12-04T23:25:07.360Z,40.10
2022-12-04T23:27:37.919Z,61.43
2022-12-04T23:30:08.559Z,42.30
2022-12-04T23:32:37.669Z,40.10
2022-12-04T23:35:07.101Z,40.17
2022-12-04T23:37:36.430Z,42.30
2022-12-04T23:40:06.099Z,39.87
2022-12-04T23:42:35.127Z,42.53
2022-12-04T23:45:07.433Z,41.80
2022-12-04T23:47:37.171Z,42.67
2022-12-04T23:50:06.723Z,41.57
2022-12-04T23:52:35.551Z,39.33
2022-12-04T23:55:04.959Z,39.37
2022-12-04T23:57:34.481Z,40.17
